sensor_id;sensor_type;location;lat;lon;timestamp;temperature;humidity
6443;DHT22;3254;47.372;8.512;2023-01-01T00:01:06;14.60;1.00
6443;DHT22;3254;47.372;8.512;2023-01-01T00:03:32;14.60;1.00
6443;DHT22;3254;47.372;8.512;2023-01-01T00:05:57;14.70;1.00
6443;DHT22;3254;47.372;8.512;2023-01-01T00:08:23;14.50;1.00
6443;DHT22;3254;47.372;8.512;2023-01-01T00:10:48;14.60;1.00
6443;DHT22;3254;47.372;8.512;2023-01-01T00:13:14;14.50;1.00
6443;DHT22;3254;47.372;8.512;2023-01-01T00:15:40;14.80;1.00
6443;DHT22;3254;47.372;8.512;2023-01-01T00:18:05;14.80;1.00
6443;DHT22;3254;47.372;8.512;2023-01-01T00:20:31;14.80;1.00
6443;DHT22;3254;47.372;8.512;2023-01-01T00:22:56;14.70;1.00
6443;DHT22;3254;47.372;8.512;2023-01-01T00:25:22;14.80;1.00
6443;DHT22;3254;47.372;8.512;2023-01-01T00:27:48;14.80;1.00
6443;DHT22;3254;47.372;8.512;2023-01-01T00:30:14;14.80;1.00
6443;DHT22;3254;47.372;8.512;2023-01-01T00:32:39;14.60;1.00
6443;DHT22;3254;47.372;8.512;2023-01-01T00:35:05;14.60;1.00
6443;DHT22;3254;47.372;8.512;2023-01-01T00:37:31;14.50;1.00
6443;DHT22;3254;47.372;8.512;2023-01-01T00:39:57;14.50;1.00
6443;DHT22;3254;47.372;8.512;2023-01-01T00:42:22;14.50;1.00
6443;DHT22;3254;47.372;8.512;2023-01-01T00:44:48;14.50;1.00
6443;DHT22;3254;47.372;8.512;2023-01-01T00:47:13;14.50;1.00
6443;DHT22;3254;47.372;8.512;2023-01-01T00:49:39;14.50;1.00
6443;DHT22;3254;47.372;8.512;2023-01-01T00:52:04;14.60;1.00
6443;DHT22;3254;47.372;8.512;2023-01-01T00:54:30;14.60;1.00
6443;DHT22;3254;47.372;8.512;2023-01-01T00:56:55;14.50;1.00
6443;DHT22;3254;47.372;8.512;2023-01-01T00:59:22;14.40;1.00
6443;DHT22;3254;47.372;8.512;2023-01-01T01:01:47;14.40;1.00
6443;DHT22;3254;47.372;8.512;2023-01-01T01:04:13;14.40;1.00
6443;DHT22;3254;47.372;8.512;2023-01-01T01:06:39;14.50;1.00
6443;DHT22;3254;47.372;8.512;2023-01-01T01:09:04;14.60;1.00
6443;DHT22;3254;47.372;8.512;2023-01-01T01:11:31;14.80;1.00
6443;DHT22;3254;47.372;8.512;2023-01-01T01:13:57;14.90;1.00
6443;DHT22;3254;47.372;8.512;2023-01-01T01:16:30;15.00;1.00
6443;DHT22;3254;47.372;8.512;2023-01-01T01:18:58;14.80;1.00
6443;DHT22;3254;47.372;8.512;2023-01-01T01:21:25;14.90;1.00
6443;DHT22;3254;47.372;8.512;2023-01-01T01:23:51;14.80;1.00
6443;DHT22;3254;47.372;8.512;2023-01-01T01:26:20;15.00;1.00
6443;DHT22;3254;47.372;8.512;2023-01-01T01:28:46;15.00;1.00
6443;DHT22;3254;47.372;8.512;2023-01-01T01:31:12;14.90;1.00
6443;DHT22;3254;47.372;8.512;2023-01-01T01:33:38;14.70;1.00
6443;DHT22;3254;47.372;8.512;2023-01-01T01:36:05;14.70;1.00
6443;DHT22;3254;47.372;8.512;2023-01-01T01:38:31;14.70;1.00
6443;DHT22;3254;47.372;8.512;2023-01-01T01:40:57;14.60;1.00
6443;DHT22;3254;47.372;8.512;2023-01-01T01:46:00;14.50;1.00
6443;DHT22;3254;47.372;8.512;2023-01-01T01:48:31;14.30;1.00
6443;DHT22;3254;47.372;8.512;2023-01-01T01:51:00;14.30;1.00
6443;DHT22;3254;47.372;8.512;2023-01-01T01:53:28;14.20;1.00
6443;DHT22;3254;47.372;8.512;2023-01-01T01:55:58;14.10;1.00
6443;DHT22;3254;47.372;8.512;2023-01-01T01:58:27;14.00;1.00
6443;DHT22;3254;47.372;8.512;2023-01-01T02:00:54;13.90;1.00
6443;DHT22;3254;47.372;8.512;2023-01-01T02:03:26;13.50;1.00
6443;DHT22;3254;47.372;8.512;2023-01-01T02:05:55;12.70;1.00
6443;DHT22;3254;47.372;8.512;2023-01-01T02:08:22;11.90;1.00
6443;DHT22;3254;47.372;8.512;2023-01-01T02:10:47;11.30;1.00
6443;DHT22;3254;47.372;8.512;2023-01-01T02:13:14;10.80;1.00
6443;DHT22;3254;47.372;8.512;2023-01-01T02:15:52;10.50;1.00
6443;DHT22;3254;47.372;8.512;2023-01-01T02:18:23;10.30;1.00
6443;DHT22;3254;47.372;8.512;2023-01-01T02:20:59;10.20;1.00
6443;DHT22;3254;47.372;8.512;2023-01-01T02:29:36;9.80;1.00
6443;DHT22;3254;47.372;8.512;2023-01-01T02:32:26;9.60;1.00
6443;DHT22;3254;47.372;8.512;2023-01-01T02:34:58;9.50;1.00
6443;DHT22;3254;47.372;8.512;2023-01-01T02:37:45;9.50;1.00
6443;DHT22;3254;47.372;8.512;2023-01-01T02:40:12;9.40;1.00
6443;DHT22;3254;47.372;8.512;2023-01-01T02:42:38;9.40;1.00
6443;DHT22;3254;47.372;8.512;2023-01-01T02:45:05;9.30;1.00
6443;DHT22;3254;47.372;8.512;2023-01-01T02:47:32;9.20;1.00
6443;DHT22;3254;47.372;8.512;2023-01-01T02:50:07;9.20;1.00
6443;DHT22;3254;47.372;8.512;2023-01-01T02:55:35;9.30;1.00
6443;DHT22;3254;47.372;8.512;2023-01-01T02:58:11;9.20;1.00
6443;DHT22;3254;47.372;8.512;2023-01-01T03:01:18;9.30;1.00
6443;DHT22;3254;47.372;8.512;2023-01-01T03:04:07;9.50;1.00
6443;DHT22;3254;47.372;8.512;2023-01-01T03:06:41;9.50;1.00
6443;DHT22;3254;47.372;8.512;2023-01-01T03:09:36;10.00;1.00
6443;DHT22;3254;47.372;8.512;2023-01-01T03:14:55;12.60;1.00
6443;DHT22;3254;47.372;8.512;2023-01-01T03:17:29;13.30;1.00
6443;DHT22;3254;47.372;8.512;2023-01-01T03:19:58;13.40;1.00
6443;DHT22;3254;47.372;8.512;2023-01-01T03:22:32;13.70;1.00
6443;DHT22;3254;47.372;8.512;2023-01-01T03:25:05;14.10;1.00
6443;DHT22;3254;47.372;8.512;2023-01-01T03:27:40;14.20;1.00
6443;DHT22;3254;47.372;8.512;2023-01-01T03:30:10;14.20;1.00
6443;DHT22;3254;47.372;8.512;2023-01-01T03:32:40;14.10;1.00
6443;DHT22;3254;47.372;8.512;2023-01-01T03:35:35;14.20;1.00
6443;DHT22;3254;47.372;8.512;2023-01-01T03:38:09;14.30;1.00
6443;DHT22;3254;47.372;8.512;2023-01-01T03:40:37;14.40;1.00
6443;DHT22;3254;47.372;8.512;2023-01-01T03:43:13;14.40;1.00
6443;DHT22;3254;47.372;8.512;2023-01-01T03:45:42;14.50;1.00
6443;DHT22;3254;47.372;8.512;2023-01-01T03:48:10;14.40;1.00
6443;DHT22;3254;47.372;8.512;2023-01-01T03:50:57;14.50;1.00
6443;DHT22;3254;47.372;8.512;2023-01-01T03:53:37;14.50;1.00
6443;DHT22;3254;47.372;8.512;2023-01-01T03:56:17;14.30;1.00
6443;DHT22;3254;47.372;8.512;2023-01-01T03:58:52;14.30;1.00
6443;DHT22;3254;47.372;8.512;2023-01-01T04:01:26;14.40;1.00
6443;DHT22;3254;47.372;8.512;2023-01-01T04:03:53;14.30;1.00
6443;DHT22;3254;47.372;8.512;2023-01-01T04:06:19;14.40;1.00
6443;DHT22;3254;47.372;8.512;2023-01-01T04:08:45;14.50;1.00
6443;DHT22;3254;47.372;8.512;2023-01-01T04:11:20;14.40;1.00
6443;DHT22;3254;47.372;8.512;2023-01-01T04:14:05;14.30;1.00
6443;DHT22;3254;47.372;8.512;2023-01-01T04:16:31;14.30;1.00
6443;DHT22;3254;47.372;8.512;2023-01-01T04:18:57;14.40;1.00
6443;DHT22;3254;47.372;8.512;2023-01-01T04:21:22;14.30;1.00
6443;DHT22;3254;47.372;8.512;2023-01-01T04:23:48;14.30;1.00
6443;DHT22;3254;47.372;8.512;2023-01-01T04:26:14;14.30;1.00
6443;DHT22;3254;47.372;8.512;2023-01-01T04:28:40;14.20;1.00
6443;DHT22;3254;47.372;8.512;2023-01-01T04:31:07;14.20;1.00
6443;DHT22;3254;47.372;8.512;2023-01-01T04:33:33;14.20;1.00
6443;DHT22;3254;47.372;8.512;2023-01-01T04:36:07;14.20;1.00
6443;DHT22;3254;47.372;8.512;2023-01-01T04:38:34;14.10;1.00
6443;DHT22;3254;47.372;8.512;2023-01-01T04:41:01;14.00;1.00
6443;DHT22;3254;47.372;8.512;2023-01-01T04:43:27;14.00;1.00
6443;DHT22;3254;47.372;8.512;2023-01-01T04:46:00;14.00;1.00
6443;DHT22;3254;47.372;8.512;2023-01-01T04:48:27;14.10;1.00
6443;DHT22;3254;47.372;8.512;2023-01-01T04:51:01;13.90;1.00
6443;DHT22;3254;47.372;8.512;2023-01-01T04:53:30;13.90;1.00
6443;DHT22;3254;47.372;8.512;2023-01-01T04:56:05;13.70;1.00
6443;DHT22;3254;47.372;8.512;2023-01-01T04:58:32;13.80;1.00
6443;DHT22;3254;47.372;8.512;2023-01-01T05:00:57;13.70;1.00
6443;DHT22;3254;47.372;8.512;2023-01-01T05:03:23;13.60;1.00
6443;DHT22;3254;47.372;8.512;2023-01-01T05:06:08;13.40;1.00
6443;DHT22;3254;47.372;8.512;2023-01-01T05:08:37;13.30;1.00
6443;DHT22;3254;47.372;8.512;2023-01-01T05:11:09;13.40;1.00
6443;DHT22;3254;47.372;8.512;2023-01-01T05:13:37;13.30;1.00
6443;DHT22;3254;47.372;8.512;2023-01-01T05:16:06;13.30;1.00
6443;DHT22;3254;47.372;8.512;2023-01-01T05:18:34;13.60;1.00
6443;DHT22;3254;47.372;8.512;2023-01-01T05:21:11;13.50;1.00
6443;DHT22;3254;47.372;8.512;2023-01-01T05:23:37;13.40;1.00
6443;DHT22;3254;47.372;8.512;2023-01-01T05:26:21;13.70;1.00
6443;DHT22;3254;47.372;8.512;2023-01-01T05:28:48;13.90;1.00
6443;DHT22;3254;47.372;8.512;2023-01-01T05:31:16;14.00;1.00
6443;DHT22;3254;47.372;8.512;2023-01-01T05:33:43;13.90;1.00
6443;DHT22;3254;47.372;8.512;2023-01-01T05:36:14;14.10;1.00
6443;DHT22;3254;47.372;8.512;2023-01-01T05:38:39;14.10;1.00
6443;DHT22;3254;47.372;8.512;2023-01-01T05:41:06;14.20;1.00
6443;DHT22;3254;47.372;8.512;2023-01-01T05:43:32;14.10;1.00
6443;DHT22;3254;47.372;8.512;2023-01-01T05:46:03;14.10;1.00
6443;DHT22;3254;47.372;8.512;2023-01-01T05:48:29;14.00;1.00
6443;DHT22;3254;47.372;8.512;2023-01-01T05:51:07;13.90;1.00
6443;DHT22;3254;47.372;8.512;2023-01-01T05:53:33;13.80;1.00
6443;DHT22;3254;47.372;8.512;2023-01-01T05:55:59;13.90;1.00
6443;DHT22;3254;47.372;8.512;2023-01-01T05:58:26;14.00;1.00
6443;DHT22;3254;47.372;8.512;2023-01-01T06:00:52;14.20;1.00
6443;DHT22;3254;47.372;8.512;2023-01-01T06:03:18;14.10;1.00
6443;DHT22;3254;47.372;8.512;2023-01-01T06:05:44;13.90;1.00
6443;DHT22;3254;47.372;8.512;2023-01-01T06:08:09;14.00;1.00
6443;DHT22;3254;47.372;8.512;2023-01-01T06:10:35;13.90;1.00
6443;DHT22;3254;47.372;8.512;2023-01-01T06:13:00;13.80;1.00
6443;DHT22;3254;47.372;8.512;2023-01-01T06:15:27;13.90;1.00
6443;DHT22;3254;47.372;8.512;2023-01-01T06:17:52;13.80;1.00
6443;DHT22;3254;47.372;8.512;2023-01-01T06:20:18;13.80;1.00
6443;DHT22;3254;47.372;8.512;2023-01-01T06:22:44;13.90;1.00
6443;DHT22;3254;47.372;8.512;2023-01-01T06:25:09;14.00;1.00
6443;DHT22;3254;47.372;8.512;2023-01-01T06:27:36;13.90;1.00
6443;DHT22;3254;47.372;8.512;2023-01-01T06:30:03;14.10;1.00
6443;DHT22;3254;47.372;8.512;2023-01-01T06:32:29;14.20;1.00
6443;DHT22;3254;47.372;8.512;2023-01-01T06:34:55;14.20;1.00
6443;DHT22;3254;47.372;8.512;2023-01-01T06:37:20;14.00;1.00
6443;DHT22;3254;47.372;8.512;2023-01-01T06:39:46;14.30;1.00
6443;DHT22;3254;47.372;8.512;2023-01-01T06:42:11;14.30;1.00
6443;DHT22;3254;47.372;8.512;2023-01-01T06:44:37;14.20;1.00
6443;DHT22;3254;47.372;8.512;2023-01-01T06:47:03;14.30;1.00
6443;DHT22;3254;47.372;8.512;2023-01-01T06:49:28;14.20;1.00
6443;DHT22;3254;47.372;8.512;2023-01-01T06:51:54;14.20;1.00
6443;DHT22;3254;47.372;8.512;2023-01-01T06:54:20;14.10;1.00
6443;DHT22;3254;47.372;8.512;2023-01-01T06:56:45;14.10;1.00
6443;DHT22;3254;47.372;8.512;2023-01-01T06:59:11;14.10;1.00
6443;DHT22;3254;47.372;8.512;2023-01-01T07:01:37;14.00;1.00
6443;DHT22;3254;47.372;8.512;2023-01-01T07:04:11;14.00;1.00
6443;DHT22;3254;47.372;8.512;2023-01-01T07:06:38;13.90;1.00
6443;DHT22;3254;47.372;8.512;2023-01-01T07:09:05;13.70;1.00
6443;DHT22;3254;47.372;8.512;2023-01-01T07:11:31;13.50;1.00
6443;DHT22;3254;47.372;8.512;2023-01-01T07:13:57;13.60;1.00
6443;DHT22;3254;47.372;8.512;2023-01-01T07:16:23;13.70;1.00
6443;DHT22;3254;47.372;8.512;2023-01-01T07:18:49;13.60;1.00
6443;DHT22;3254;47.372;8.512;2023-01-01T07:21:39;13.80;1.00
6443;DHT22;3254;47.372;8.512;2023-01-01T07:24:07;13.60;1.00
6443;DHT22;3254;47.372;8.512;2023-01-01T07:26:34;13.60;1.00
6443;DHT22;3254;47.372;8.512;2023-01-01T07:29:00;13.50;1.00
6443;DHT22;3254;47.372;8.512;2023-01-01T07:31:26;13.60;1.00
6443;DHT22;3254;47.372;8.512;2023-01-01T07:33:51;13.70;1.00
6443;DHT22;3254;47.372;8.512;2023-01-01T07:36:17;13.60;1.00
6443;DHT22;3254;47.372;8.512;2023-01-01T07:38:42;13.50;1.00
6443;DHT22;3254;47.372;8.512;2023-01-01T07:41:08;13.10;1.00
6443;DHT22;3254;47.372;8.512;2023-01-01T07:43:34;12.60;1.00
6443;DHT22;3254;47.372;8.512;2023-01-01T07:46:00;12.70;1.00
6443;DHT22;3254;47.372;8.512;2023-01-01T07:48:25;12.70;1.00
6443;DHT22;3254;47.372;8.512;2023-01-01T07:50:51;12.40;1.00
6443;DHT22;3254;47.372;8.512;2023-01-01T07:53:17;12.60;1.00
6443;DHT22;3254;47.372;8.512;2023-01-01T07:55:42;13.10;1.00
6443;DHT22;3254;47.372;8.512;2023-01-01T07:58:11;13.50;1.00
6443;DHT22;3254;47.372;8.512;2023-01-01T08:00:37;13.50;1.00
6443;DHT22;3254;47.372;8.512;2023-01-01T08:03:03;13.40;1.00
6443;DHT22;3254;47.372;8.512;2023-01-01T08:05:28;13.50;1.00
6443;DHT22;3254;47.372;8.512;2023-01-01T08:07:54;13.70;1.00
6443;DHT22;3254;47.372;8.512;2023-01-01T08:10:20;13.90;1.00
6443;DHT22;3254;47.372;8.512;2023-01-01T08:12:46;14.10;1.00
6443;DHT22;3254;47.372;8.512;2023-01-01T08:15:12;14.30;1.00
6443;DHT22;3254;47.372;8.512;2023-01-01T08:17:38;14.20;1.00
6443;DHT22;3254;47.372;8.512;2023-01-01T08:20:05;14.20;1.00
6443;DHT22;3254;47.372;8.512;2023-01-01T08:22:30;14.20;1.00
6443;DHT22;3254;47.372;8.512;2023-01-01T08:24:56;14.30;1.00
6443;DHT22;3254;47.372;8.512;2023-01-01T08:27:22;14.30;1.00
6443;DHT22;3254;47.372;8.512;2023-01-01T08:29:47;14.30;1.00
6443;DHT22;3254;47.372;8.512;2023-01-01T08:32:13;14.30;1.00
6443;DHT22;3254;47.372;8.512;2023-01-01T08:34:39;14.50;1.00
6443;DHT22;3254;47.372;8.512;2023-01-01T08:37:05;14.50;1.00
6443;DHT22;3254;47.372;8.512;2023-01-01T08:39:31;14.50;1.00
6443;DHT22;3254;47.372;8.512;2023-01-01T08:41:56;14.60;1.00
6443;DHT22;3254;47.372;8.512;2023-01-01T08:44:22;14.70;1.00
6443;DHT22;3254;47.372;8.512;2023-01-01T08:46:47;14.60;1.00
6443;DHT22;3254;47.372;8.512;2023-01-01T08:49:13;14.60;1.00
6443;DHT22;3254;47.372;8.512;2023-01-01T08:51:39;14.70;1.00
6443;DHT22;3254;47.372;8.512;2023-01-01T08:54:05;14.70;1.00
6443;DHT22;3254;47.372;8.512;2023-01-01T08:56:31;14.60;1.00
6443;DHT22;3254;47.372;8.512;2023-01-01T08:58:56;14.60;1.00
6443;DHT22;3254;47.372;8.512;2023-01-01T09:01:22;14.60;1.00
6443;DHT22;3254;47.372;8.512;2023-01-01T09:03:50;14.70;1.00
6443;DHT22;3254;47.372;8.512;2023-01-01T09:06:16;14.80;1.00
6443;DHT22;3254;47.372;8.512;2023-01-01T09:08:42;14.90;1.00
6443;DHT22;3254;47.372;8.512;2023-01-01T09:11:22;15.10;1.00
6443;DHT22;3254;47.372;8.512;2023-01-01T09:13:48;15.40;1.00
6443;DHT22;3254;47.372;8.512;2023-01-01T09:16:14;15.30;1.00
6443;DHT22;3254;47.372;8.512;2023-01-01T09:18:39;15.40;1.00
6443;DHT22;3254;47.372;8.512;2023-01-01T09:21:05;15.60;1.00
6443;DHT22;3254;47.372;8.512;2023-01-01T09:23:30;15.80;1.00
6443;DHT22;3254;47.372;8.512;2023-01-01T09:26:07;15.90;1.00
6443;DHT22;3254;47.372;8.512;2023-01-01T09:28:33;16.00;1.00
6443;DHT22;3254;47.372;8.512;2023-01-01T09:30:59;16.10;1.00
6443;DHT22;3254;47.372;8.512;2023-01-01T09:33:26;16.10;1.00
6443;DHT22;3254;47.372;8.512;2023-01-01T09:35:52;16.30;1.00
6443;DHT22;3254;47.372;8.512;2023-01-01T09:38:17;16.20;1.00
6443;DHT22;3254;47.372;8.512;2023-01-01T09:41:14;16.40;1.00
6443;DHT22;3254;47.372;8.512;2023-01-01T09:46:48;16.90;1.00
6443;DHT22;3254;47.372;8.512;2023-01-01T09:49:27;17.00;1.00
6443;DHT22;3254;47.372;8.512;2023-01-01T09:51:55;17.20;1.00
6443;DHT22;3254;47.372;8.512;2023-01-01T09:54:52;17.60;1.00
6443;DHT22;3254;47.372;8.512;2023-01-01T09:57:29;17.50;1.00
6443;DHT22;3254;47.372;8.512;2023-01-01T09:59:56;17.30;1.00
6443;DHT22;3254;47.372;8.512;2023-01-01T10:02:54;17.50;1.00
6443;DHT22;3254;47.372;8.512;2023-01-01T10:18:28;17.20;1.00
6443;DHT22;3254;47.372;8.512;2023-01-01T10:21:26;17.30;1.00
6443;DHT22;3254;47.372;8.512;2023-01-01T10:23:58;17.40;1.00
6443;DHT22;3254;47.372;8.512;2023-01-01T10:26:27;17.00;1.00
6443;DHT22;3254;47.372;8.512;2023-01-01T10:29:02;16.80;1.00
6443;DHT22;3254;47.372;8.512;2023-01-01T10:33:55;16.90;1.00
6443;DHT22;3254;47.372;8.512;2023-01-01T10:36:21;17.00;1.00
6443;DHT22;3254;47.372;8.512;2023-01-01T10:38:47;17.30;1.00
6443;DHT22;3254;47.372;8.512;2023-01-01T10:41:14;17.30;1.00
6443;DHT22;3254;47.372;8.512;2023-01-01T10:43:40;17.20;1.00
6443;DHT22;3254;47.372;8.512;2023-01-01T10:46:10;17.20;1.00
6443;DHT22;3254;47.372;8.512;2023-01-01T10:48:37;17.40;1.00
6443;DHT22;3254;47.372;8.512;2023-01-01T10:51:04;18.30;1.00
6443;DHT22;3254;47.372;8.512;2023-01-01T10:58:54;20.30;1.00
6443;DHT22;3254;47.372;8.512;2023-01-01T11:01:31;20.30;1.00
6443;DHT22;3254;47.372;8.512;2023-01-01T11:06:39;21.00;1.00
6443;DHT22;3254;47.372;8.512;2023-01-01T11:09:28;21.30;1.00
6443;DHT22;3254;47.372;8.512;2023-01-01T11:11:58;21.50;1.00
6443;DHT22;3254;47.372;8.512;2023-01-01T11:14:31;21.60;1.00
6443;DHT22;3254;47.372;8.512;2023-01-01T11:17:00;21.80;1.00
6443;DHT22;3254;47.372;8.512;2023-01-01T11:19:34;22.00;1.00
6443;DHT22;3254;47.372;8.512;2023-01-01T11:22:04;21.90;1.00
6443;DHT22;3254;47.372;8.512;2023-01-01T11:24:34;21.70;1.00
6443;DHT22;3254;47.372;8.512;2023-01-01T11:27:22;22.00;1.00
6443;DHT22;3254;47.372;8.512;2023-01-01T11:29:49;22.70;1.00
6443;DHT22;3254;47.372;8.512;2023-01-01T11:32:25;22.50;1.00
6443;DHT22;3254;47.372;8.512;2023-01-01T11:35:03;22.90;1.00
6443;DHT22;3254;47.372;8.512;2023-01-01T11:37:33;22.70;1.00
6443;DHT22;3254;47.372;8.512;2023-01-01T11:40:01;22.90;1.00
6443;DHT22;3254;47.372;8.512;2023-01-01T11:42:31;22.90;1.00
6443;DHT22;3254;47.372;8.512;2023-01-01T11:45:01;22.80;1.00
6443;DHT22;3254;47.372;8.512;2023-01-01T11:47:35;23.00;1.00
6443;DHT22;3254;47.372;8.512;2023-01-01T11:52:49;23.40;1.00
6443;DHT22;3254;47.372;8.512;2023-01-01T11:55:38;23.20;1.00
6443;DHT22;3254;47.372;8.512;2023-01-01T12:01:03;24.20;1.00
6443;DHT22;3254;47.372;8.512;2023-01-01T12:03:38;24.20;1.00
6443;DHT22;3254;47.372;8.512;2023-01-01T12:08:45;24.20;1.00
6443;DHT22;3254;47.372;8.512;2023-01-01T12:11:30;23.90;1.00
6443;DHT22;3254;47.372;8.512;2023-01-01T12:14:24;24.20;1.00
6443;DHT22;3254;47.372;8.512;2023-01-01T12:16:56;24.30;1.00
6443;DHT22;3254;47.372;8.512;2023-01-01T12:22:32;24.70;1.00
6443;DHT22;3254;47.372;8.512;2023-01-01T12:24:58;24.10;1.00
6443;DHT22;3254;47.372;8.512;2023-01-01T12:30:22;24.50;1.00
6443;DHT22;3254;47.372;8.512;2023-01-01T12:33:26;24.80;1.00
6443;DHT22;3254;47.372;8.512;2023-01-01T12:36:06;24.20;1.00
6443;DHT22;3254;47.372;8.512;2023-01-01T12:41:36;24.80;1.00
6443;DHT22;3254;47.372;8.512;2023-01-01T12:44:42;24.80;1.00
6443;DHT22;3254;47.372;8.512;2023-01-01T13:01:12;24.80;1.00
6443;DHT22;3254;47.372;8.512;2023-01-01T13:03:51;24.70;1.00
6443;DHT22;3254;47.372;8.512;2023-01-01T13:06:25;24.60;1.00
6443;DHT22;3254;47.372;8.512;2023-01-01T13:09:01;24.80;1.00
6443;DHT22;3254;47.372;8.512;2023-01-01T13:11:29;24.90;1.00
6443;DHT22;3254;47.372;8.512;2023-01-01T13:13:55;25.10;1.00
6443;DHT22;3254;47.372;8.512;2023-01-01T13:16:36;24.70;1.00
6443;DHT22;3254;47.372;8.512;2023-01-01T13:19:02;24.60;1.00
6443;DHT22;3254;47.372;8.512;2023-01-01T13:21:29;24.50;1.00
6443;DHT22;3254;47.372;8.512;2023-01-01T13:24:02;24.30;1.00
6443;DHT22;3254;47.372;8.512;2023-01-01T13:26:33;24.40;1.00
6443;DHT22;3254;47.372;8.512;2023-01-01T13:37:24;24.60;1.00
6443;DHT22;3254;47.372;8.512;2023-01-01T14:04:50;23.70;1.00
6443;DHT22;3254;47.372;8.512;2023-01-01T14:09:51;23.40;1.00
6443;DHT22;3254;47.372;8.512;2023-01-01T14:12:18;23.20;1.00
6443;DHT22;3254;47.372;8.512;2023-01-01T14:14:45;23.00;1.00
6443;DHT22;3254;47.372;8.512;2023-01-01T14:17:13;22.40;1.00
6443;DHT22;3254;47.372;8.512;2023-01-01T14:19:40;22.00;1.00
6443;DHT22;3254;47.372;8.512;2023-01-01T14:22:07;21.80;1.00
6443;DHT22;3254;47.372;8.512;2023-01-01T14:24:40;21.30;1.00
6443;DHT22;3254;47.372;8.512;2023-01-01T14:27:06;21.10;1.00
6443;DHT22;3254;47.372;8.512;2023-01-01T14:29:32;21.30;1.00
6443;DHT22;3254;47.372;8.512;2023-01-01T14:31:59;21.40;1.00
6443;DHT22;3254;47.372;8.512;2023-01-01T14:34:28;21.20;1.00
6443;DHT22;3254;47.372;8.512;2023-01-01T14:36:55;20.80;1.00
6443;DHT22;3254;47.372;8.512;2023-01-01T14:39:27;20.30;1.00
6443;DHT22;3254;47.372;8.512;2023-01-01T14:41:56;19.50;1.00
6443;DHT22;3254;47.372;8.512;2023-01-01T14:44:28;19.00;1.00
6443;DHT22;3254;47.372;8.512;2023-01-01T14:46:56;18.40;1.00
6443;DHT22;3254;47.372;8.512;2023-01-01T14:49:31;18.10;1.00
6443;DHT22;3254;47.372;8.512;2023-01-01T14:52:02;17.80;1.00
6443;DHT22;3254;47.372;8.512;2023-01-01T14:54:35;17.40;1.00
6443;DHT22;3254;47.372;8.512;2023-01-01T14:57:01;17.20;1.00
6443;DHT22;3254;47.372;8.512;2023-01-01T14:59:32;17.00;1.00
6443;DHT22;3254;47.372;8.512;2023-01-01T15:02:20;16.70;1.00
6443;DHT22;3254;47.372;8.512;2023-01-01T15:04:47;16.60;1.00
6443;DHT22;3254;47.372;8.512;2023-01-01T15:07:21;16.40;1.00
6443;DHT22;3254;47.372;8.512;2023-01-01T15:09:47;16.20;1.00
6443;DHT22;3254;47.372;8.512;2023-01-01T15:12:13;16.00;1.00
6443;DHT22;3254;47.372;8.512;2023-01-01T15:14:42;15.90;1.00
6443;DHT22;3254;47.372;8.512;2023-01-01T15:17:18;15.70;1.00
6443;DHT22;3254;47.372;8.512;2023-01-01T15:19:46;15.40;1.00
6443;DHT22;3254;47.372;8.512;2023-01-01T15:22:25;15.20;1.00
6443;DHT22;3254;47.372;8.512;2023-01-01T15:24:52;15.10;1.00
6443;DHT22;3254;47.372;8.512;2023-01-01T15:27:27;15.00;1.00
6443;DHT22;3254;47.372;8.512;2023-01-01T15:29:53;14.70;1.00
6443;DHT22;3254;47.372;8.512;2023-01-01T15:32:27;14.60;1.00
6443;DHT22;3254;47.372;8.512;2023-01-01T15:34:55;14.40;1.00
6443;DHT22;3254;47.372;8.512;2023-01-01T15:37:33;14.30;1.00
6443;DHT22;3254;47.372;8.512;2023-01-01T15:40:31;14.20;1.00
6443;DHT22;3254;47.372;8.512;2023-01-01T15:45:37;13.90;1.00
6443;DHT22;3254;47.372;8.512;2023-01-01T15:50:29;13.60;1.00
6443;DHT22;3254;47.372;8.512;2023-01-01T15:53:01;13.50;1.00
6443;DHT22;3254;47.372;8.512;2023-01-01T15:55:33;13.30;1.00
6443;DHT22;3254;47.372;8.512;2023-01-01T15:58:02;13.20;1.00
6443;DHT22;3254;47.372;8.512;2023-01-01T16:00:31;13.10;1.00
6443;DHT22;3254;47.372;8.512;2023-01-01T16:03:09;12.90;1.00
6443;DHT22;3254;47.372;8.512;2023-01-01T16:05:51;12.80;1.00
6443;DHT22;3254;47.372;8.512;2023-01-01T16:08:17;12.60;1.00
6443;DHT22;3254;47.372;8.512;2023-01-01T16:10:44;12.50;1.00
6443;DHT22;3254;47.372;8.512;2023-01-01T16:13:10;12.40;1.00
6443;DHT22;3254;47.372;8.512;2023-01-01T16:15:46;12.40;1.00
6443;DHT22;3254;47.372;8.512;2023-01-01T16:18:13;12.30;1.00
6443;DHT22;3254;47.372;8.512;2023-01-01T16:20:40;12.20;1.00
6443;DHT22;3254;47.372;8.512;2023-01-01T16:23:08;12.10;1.00
6443;DHT22;3254;47.372;8.512;2023-01-01T16:25:34;12.00;1.00
6443;DHT22;3254;47.372;8.512;2023-01-01T16:27:59;11.80;1.00
6443;DHT22;3254;47.372;8.512;2023-01-01T16:30:25;11.80;1.00
6443;DHT22;3254;47.372;8.512;2023-01-01T16:32:51;11.80;1.00
6443;DHT22;3254;47.372;8.512;2023-01-01T16:35:16;11.80;1.00
6443;DHT22;3254;47.372;8.512;2023-01-01T16:37:42;11.70;1.00
6443;DHT22;3254;47.372;8.512;2023-01-01T16:40:08;11.50;1.00
6443;DHT22;3254;47.372;8.512;2023-01-01T16:42:34;11.50;1.00
6443;DHT22;3254;47.372;8.512;2023-01-01T16:44:59;11.30;1.00
6443;DHT22;3254;47.372;8.512;2023-01-01T16:47:25;11.30;1.00
6443;DHT22;3254;47.372;8.512;2023-01-01T16:49:50;11.20;1.00
6443;DHT22;3254;47.372;8.512;2023-01-01T16:52:16;11.20;1.00
6443;DHT22;3254;47.372;8.512;2023-01-01T16:54:41;11.10;1.00
6443;DHT22;3254;47.372;8.512;2023-01-01T16:57:07;11.10;1.00
6443;DHT22;3254;47.372;8.512;2023-01-01T16:59:33;11.10;1.00
6443;DHT22;3254;47.372;8.512;2023-01-01T17:01:59;11.00;1.00
6443;DHT22;3254;47.372;8.512;2023-01-01T17:04:24;11.00;1.00
6443;DHT22;3254;47.372;8.512;2023-01-01T17:06:52;10.90;1.00
6443;DHT22;3254;47.372;8.512;2023-01-01T17:09:18;10.90;1.00
6443;DHT22;3254;47.372;8.512;2023-01-01T17:11:43;10.70;1.00
6443;DHT22;3254;47.372;8.512;2023-01-01T17:14:11;10.60;1.00
6443;DHT22;3254;47.372;8.512;2023-01-01T17:16:37;10.60;1.00
6443;DHT22;3254;47.372;8.512;2023-01-01T17:19:03;10.50;1.00
6443;DHT22;3254;47.372;8.512;2023-01-01T17:21:29;10.50;1.00
6443;DHT22;3254;47.372;8.512;2023-01-01T17:23:54;10.60;1.00
6443;DHT22;3254;47.372;8.512;2023-01-01T17:26:22;10.50;1.00
6443;DHT22;3254;47.372;8.512;2023-01-01T17:28:49;10.40;1.00
6443;DHT22;3254;47.372;8.512;2023-01-01T17:31:17;10.30;1.00
6443;DHT22;3254;47.372;8.512;2023-01-01T17:33:45;10.30;1.00
6443;DHT22;3254;47.372;8.512;2023-01-01T17:36:11;10.30;1.00
6443;DHT22;3254;47.372;8.512;2023-01-01T17:38:37;10.20;1.00
6443;DHT22;3254;47.372;8.512;2023-01-01T17:41:08;10.10;1.00
6443;DHT22;3254;47.372;8.512;2023-01-01T17:43:39;10.00;1.00
6443;DHT22;3254;47.372;8.512;2023-01-01T17:46:26;10.00;1.00
6443;DHT22;3254;47.372;8.512;2023-01-01T17:48:53;9.90;1.00
6443;DHT22;3254;47.372;8.512;2023-01-01T17:51:19;9.90;1.00
6443;DHT22;3254;47.372;8.512;2023-01-01T17:53:45;9.90;1.00
6443;DHT22;3254;47.372;8.512;2023-01-01T17:56:13;9.80;1.00
6443;DHT22;3254;47.372;8.512;2023-01-01T17:58:40;9.80;1.00
6443;DHT22;3254;47.372;8.512;2023-01-01T18:01:18;9.80;1.00
6443;DHT22;3254;47.372;8.512;2023-01-01T18:03:58;9.80;1.60
6443;DHT22;3254;47.372;8.512;2023-01-01T18:06:24;9.80;2.20
6443;DHT22;3254;47.372;8.512;2023-01-01T18:08:54;9.70;3.60
6443;DHT22;3254;47.372;8.512;2023-01-01T18:11:20;9.60;4.70
6443;DHT22;3254;47.372;8.512;2023-01-01T18:13:45;9.60;7.40
6443;DHT22;3254;47.372;8.512;2023-01-01T18:16:11;9.50;7.90
6443;DHT22;3254;47.372;8.512;2023-01-01T18:18:38;9.50;11.30
6443;DHT22;3254;47.372;8.512;2023-01-01T18:21:10;9.50;11.90
6443;DHT22;3254;47.372;8.512;2023-01-01T18:23:39;9.40;13.80
6443;DHT22;3254;47.372;8.512;2023-01-01T18:26:07;9.50;14.80
6443;DHT22;3254;47.372;8.512;2023-01-01T18:28:33;9.40;16.60